createdAt,value
2018-04-12T00:02:14.701Z,13.30
2018-04-12T00:04:42.949Z,12.60
2018-04-12T00:07:11.990Z,14.27
2018-04-12T00:09:40.295Z,14.53
2018-04-12T00:12:08.586Z,13.50
2018-04-12T00:14:37.647Z,14.80
2018-04-12T00:17:05.910Z,12.97
2018-04-12T00:19:34.137Z,15.50
2018-04-12T00:22:02.423Z,17.10
2018-04-12T00:24:30.705Z,17.57
2018-04-12T00:26:58.958Z,17.37
2018-04-12T00:29:27.186Z,17.60
2018-04-12T00:31:55.472Z,18.80
2018-04-12T00:34:23.857Z,20.60
2018-04-12T00:36:52.131Z,18.43
2018-04-12T00:39:20.368Z,19.20
2018-04-12T00:41:49.680Z,20.83
2018-04-12T00:44:18.699Z,17.60
2018-04-12T00:46:47.237Z,19.97
2018-04-12T00:49:15.488Z,20.93
2018-04-12T00:51:43.720Z,19.70
2018-04-12T00:54:12.783Z,21.43
2018-04-12T00:56:41.040Z,21.20
2018-04-12T00:59:09.791Z,22.20
2018-04-12T01:01:38.045Z,26.53
2018-04-12T01:04:06.296Z,26.07
2018-04-12T01:06:34.578Z,27.70
2018-04-12T01:09:02.815Z,25.77
2018-04-12T01:11:31.069Z,24.43
2018-04-12T01:13:59.348Z,24.53
2018-04-12T01:16:27.644Z,27.87
2018-04-12T01:18:56.433Z,27.83
2018-04-12T01:21:24.718Z,30.50
2018-04-12T01:23:53.290Z,30.33
2018-04-12T01:26:21.565Z,37.00
2018-04-12T01:28:49.814Z,33.57
2018-04-12T01:31:18.838Z,31.87
2018-04-12T01:33:47.193Z,29.40
2018-04-12T01:36:16.200Z,28.47
2018-04-12T01:38:44.513Z,27.50
2018-04-12T01:41:12.759Z,31.77
2018-04-12T01:43:41.021Z,29.90
2018-04-12T01:46:09.305Z,26.23
2018-04-12T01:48:37.585Z,27.87
2018-04-12T01:51:06.595Z,28.83
2018-04-12T01:53:34.867Z,30.67
2018-04-12T01:56:03.130Z,26.60
2018-04-12T01:58:32.164Z,29.10
2018-04-12T02:01:00.435Z,32.93
2018-04-12T02:03:28.713Z,32.30
2018-04-12T02:05:56.966Z,30.60
2018-04-12T02:08:25.222Z,29.63
2018-04-12T02:10:54.666Z,31.50
2018-04-12T02:13:24.472Z,30.40
2018-04-12T02:15:53.680Z,35.27
2018-04-12T02:18:22.176Z,34.37
2018-04-12T02:20:50.443Z,32.90
2018-04-12T02:23:18.665Z,31.33
2018-04-12T02:25:46.954Z,36.20
2018-04-12T02:28:15.190Z,34.73
2018-04-12T02:30:43.489Z,33.90
2018-04-12T02:33:12.564Z,32.23
2018-04-12T02:35:40.826Z,33.53
2018-04-12T02:38:09.100Z,32.70
2018-04-12T02:40:37.345Z,33.77
2018-04-12T02:43:05.629Z,32.30
2018-04-12T02:45:34.652Z,35.20
2018-04-12T02:48:02.901Z,32.73
2018-04-12T02:50:31.177Z,31.63
2018-04-12T02:52:59.496Z,31.17
2018-04-12T02:55:27.772Z,32.00
2018-04-12T02:57:56.023Z,32.60
2018-04-12T03:00:25.603Z,32.13
2018-04-12T03:02:53.871Z,34.83
2018-04-12T03:05:22.134Z,32.30
2018-04-12T03:07:50.973Z,32.47
2018-04-12T03:10:19.258Z,34.80
2018-04-12T03:12:47.520Z,34.37
2018-04-12T03:15:16.639Z,31.70
2018-04-12T03:17:46.238Z,31.53
2018-04-12T03:20:14.489Z,32.20
2018-04-12T03:22:43.501Z,31.80
2018-04-12T03:25:11.761Z,32.33
2018-04-12T03:27:40.787Z,33.37
2018-04-12T03:30:09.045Z,29.40
2018-04-12T03:32:38.054Z,32.60
2018-04-12T03:35:07.116Z,34.10
2018-04-12T03:37:36.158Z,34.33
2018-04-12T03:40:04.417Z,34.20
2018-04-12T03:42:33.430Z,32.50
2018-04-12T03:45:01.697Z,35.03
2018-04-12T03:47:30.783Z,34.40
2018-04-12T03:49:59.138Z,33.93
2018-04-12T03:52:27.408Z,33.57
2018-04-12T03:54:55.656Z,36.10
2018-04-12T03:57:24.856Z,38.23
2018-04-12T03:59:53.110Z,35.30
2018-04-12T04:02:21.362Z,32.30
2018-04-12T04:04:50.387Z,32.63
2018-04-12T04:07:18.665Z,34.03
2018-04-12T04:09:46.930Z,33.87
2018-04-12T04:12:15.172Z,35.47
2018-04-12T04:18:03.134Z,35.13
2018-04-12T04:20:43.253Z,33.77
2018-04-12T04:23:12.276Z,34.47
2018-04-12T04:25:40.846Z,33.40
2018-04-12T04:28:09.116Z,32.07
2018-04-12T04:30:37.388Z,33.83
2018-04-12T04:33:05.637Z,40.50
2018-04-12T04:35:33.920Z,34.67
2018-04-12T04:38:02.463Z,32.90
2018-04-12T04:40:30.836Z,35.67
2018-04-12T04:42:59.097Z,38.50
2018-04-12T04:45:27.354Z,38.50
2018-04-12T04:47:55.646Z,36.50
2018-04-12T04:50:23.891Z,37.50
2018-04-12T04:52:52.538Z,38.37
2018-04-12T04:55:20.783Z,38.63
2018-04-12T04:57:49.055Z,40.13
2018-04-12T05:00:17.332Z,42.87
2018-04-12T05:02:45.661Z,39.90
2018-04-12T05:05:13.949Z,39.67
2018-04-12T05:07:43.093Z,39.53
2018-04-12T05:10:11.358Z,37.93
2018-04-12T05:12:40.423Z,39.27
2018-04-12T05:15:08.677Z,39.10
2018-04-12T05:17:37.465Z,35.53
2018-04-12T05:20:06.153Z,39.70
2018-04-12T05:22:35.119Z,38.73
2018-04-12T05:25:04.478Z,38.80
2018-04-12T05:27:33.495Z,44.13
2018-04-12T05:30:01.742Z,36.83
2018-04-12T05:32:30.101Z,36.53
2018-04-12T05:34:58.372Z,44.23
2018-04-12T05:37:26.642Z,38.20
2018-04-12T05:39:54.925Z,40.57
2018-04-12T05:42:23.233Z,38.33
2018-04-12T05:44:51.552Z,39.23
2018-04-12T05:47:19.832Z,40.53
2018-04-12T05:49:48.063Z,37.70
2018-04-12T05:52:17.088Z,40.50
2018-04-12T05:54:45.396Z,42.40
2018-04-12T05:57:13.684Z,42.57
2018-04-12T05:59:41.962Z,42.27
2018-04-12T06:02:10.191Z,44.53
2018-04-12T06:04:38.475Z,37.47
2018-04-12T06:07:06.767Z,40.77
2018-04-12T06:09:35.859Z,39.83
2018-04-12T06:12:04.132Z,43.70
2018-04-12T06:14:32.412Z,42.13
2018-04-12T06:17:01.513Z,42.13
2018-04-12T06:19:29.780Z,39.63
2018-04-12T06:21:58.077Z,43.60
2018-04-12T06:24:26.341Z,41.83
2018-04-12T06:26:54.588Z,39.73
2018-04-12T06:29:22.866Z,41.70
2018-04-12T06:31:51.128Z,41.60
2018-04-12T06:34:19.734Z,41.10
2018-04-12T06:36:47.978Z,40.43
2018-04-12T06:39:17.651Z,37.73
2018-04-12T06:41:47.877Z,42.27
2018-04-12T06:44:16.127Z,43.17
2018-04-12T06:46:44.426Z,41.90
2018-04-12T06:49:13.457Z,43.07
2018-04-12T06:51:41.869Z,43.87
2018-04-12T06:54:10.887Z,40.90
2018-04-12T06:56:39.235Z,43.37
2018-04-12T06:59:09.114Z,42.40
2018-04-12T07:01:38.397Z,41.50
2018-04-12T07:04:07.438Z,44.03
2018-04-12T07:06:36.496Z,43.17
2018-04-12T07:09:04.772Z,40.97
2018-04-12T07:11:33.082Z,42.70
2018-04-12T07:14:02.137Z,42.47
2018-04-12T07:16:30.724Z,42.57
2018-04-12T07:19:00.031Z,42.77
2018-04-12T07:21:28.302Z,44.03
2018-04-12T07:23:57.439Z,43.17
2018-04-12T07:26:26.257Z,43.30
2018-04-12T07:28:56.223Z,42.20
2018-04-12T07:31:24.522Z,43.80
2018-04-12T07:33:53.570Z,42.70
2018-04-12T07:36:21.878Z,43.63
2018-04-12T07:38:51.115Z,41.63
2018-04-12T07:41:20.225Z,43.70
2018-04-12T07:43:48.541Z,47.50
2018-04-12T07:46:16.770Z,44.37
2018-04-12T07:48:45.078Z,45.93
2018-04-12T07:51:13.320Z,46.40
2018-04-12T07:53:42.620Z,46.53
2018-04-12T07:56:10.905Z,44.33
2018-04-12T07:58:40.318Z,48.40
2018-04-12T08:01:09.313Z,46.60
2018-04-12T08:03:37.594Z,45.73
2018-04-12T08:06:06.264Z,47.60
2018-04-12T08:08:34.533Z,48.40
2018-04-12T08:11:03.873Z,49.47
2018-04-12T08:13:32.157Z,46.17
2018-04-12T08:16:01.245Z,52.43
2018-04-12T08:18:29.552Z,52.20
2018-04-12T08:20:57.807Z,53.70
2018-04-12T08:23:26.102Z,53.73
2018-04-12T08:25:55.341Z,51.03
2018-04-12T08:28:24.379Z,52.63
2018-04-12T08:30:52.703Z,51.20
2018-04-12T08:33:20.943Z,50.43
2018-04-12T08:35:49.223Z,51.37
2018-04-12T08:38:17.501Z,52.90
2018-04-12T08:40:45.800Z,51.93
2018-04-12T08:43:14.206Z,53.10
2018-04-12T08:45:42.437Z,50.03
2018-04-12T08:48:10.756Z,52.27
2018-04-12T08:50:39.011Z,53.80
2018-04-12T08:53:07.340Z,52.20
2018-04-12T08:55:36.347Z,47.27
2018-04-12T08:58:04.602Z,50.20
2018-04-12T09:00:33.623Z,51.27
2018-04-12T09:03:01.995Z,49.60
2018-04-12T09:05:30.989Z,48.20
2018-04-12T09:07:59.315Z,50.63
2018-04-12T09:10:27.576Z,48.00
2018-04-12T09:12:55.804Z,47.20
2018-04-12T09:15:24.111Z,45.13
2018-04-12T09:17:52.366Z,46.80
2018-04-12T09:20:20.624Z,45.73
2018-04-12T09:22:49.012Z,50.23
2018-04-12T09:25:17.312Z,55.97
2018-04-12T09:27:45.592Z,48.57
2018-04-12T09:30:14.616Z,47.03
2018-04-12T09:32:43.908Z,47.10
2018-04-12T09:35:12.171Z,43.87
2018-04-12T09:37:41.406Z,43.33
2018-04-12T09:40:09.685Z,44.00
2018-04-12T09:42:37.997Z,37.10
2018-04-12T09:45:06.271Z,36.27
2018-04-12T09:47:35.341Z,37.60
2018-04-12T09:50:03.870Z,37.00
2018-04-12T09:52:32.141Z,36.00
2018-04-12T09:55:00.420Z,33.93
2018-04-12T09:57:29.411Z,33.00
2018-04-12T09:59:57.739Z,33.77
2018-04-12T10:02:28.572Z,33.60
2018-04-12T10:05:00.789Z,35.07
2018-04-12T10:07:35.467Z,33.10
2018-04-12T10:10:04.182Z,34.33
2018-04-12T10:12:32.470Z,33.10
2018-04-12T10:15:01.503Z,33.17
2018-04-12T10:17:29.833Z,33.40
2018-04-12T10:19:58.095Z,33.43
2018-04-12T10:22:26.345Z,33.60
2018-04-12T10:24:54.633Z,28.77
2018-04-12T10:27:22.921Z,30.80
2018-04-12T10:29:52.785Z,32.30
2018-04-12T10:32:21.082Z,29.97
2018-04-12T10:34:49.435Z,30.57
2018-04-12T10:37:17.712Z,33.80
2018-04-12T10:39:46.773Z,33.13
2018-04-12T10:42:15.409Z,34.80
2018-04-12T10:44:43.694Z,32.67
2018-04-12T10:47:12.308Z,30.77
2018-04-12T10:49:40.619Z,32.77
2018-04-12T10:52:08.907Z,30.27
2018-04-12T10:54:37.997Z,31.20
2018-04-12T10:57:06.282Z,29.20
2018-04-12T10:59:34.786Z,28.30
2018-04-12T11:02:05.076Z,26.07
2018-04-12T11:04:33.343Z,26.37
2018-04-12T11:07:02.388Z,27.23
2018-04-12T11:09:30.682Z,30.30
2018-04-12T11:11:58.933Z,25.00
2018-04-12T11:14:27.184Z,26.80
2018-04-12T11:16:56.243Z,26.30
2018-04-12T11:19:24.527Z,24.90
2018-04-12T11:21:52.823Z,25.73
2018-04-12T11:24:21.072Z,24.67
2018-04-12T11:26:49.365Z,21.97
2018-04-12T11:29:17.694Z,19.97
2018-04-12T11:31:45.987Z,20.97
2018-04-12T11:34:15.077Z,21.87
2018-04-12T11:36:44.095Z,19.70
2018-04-12T11:39:13.473Z,20.60
2018-04-12T11:41:41.821Z,19.60
2018-04-12T11:44:12.088Z,21.20
2018-04-12T11:46:40.313Z,23.00
2018-04-12T11:49:08.675Z,19.20
2018-04-12T11:51:36.947Z,19.03
2018-04-12T11:54:05.591Z,17.77
2018-04-12T11:56:33.845Z,18.47
2018-04-12T11:59:02.603Z,17.93
2018-04-12T12:01:31.144Z,19.57
2018-04-12T12:03:59.494Z,19.93
2018-04-12T12:06:27.813Z,18.90
2018-04-12T12:08:56.832Z,19.67
2018-04-12T12:11:25.151Z,22.73
2018-04-12T12:13:53.404Z,24.43
2018-04-12T12:16:21.681Z,23.30
2018-04-12T12:18:49.961Z,22.97
2018-04-12T12:21:18.256Z,24.30
2018-04-12T12:23:48.306Z,23.03
2018-04-12T12:26:16.509Z,23.33
2018-04-12T12:28:44.798Z,23.57
2018-04-12T12:31:13.068Z,23.47
2018-04-12T12:33:41.354Z,23.20
2018-04-12T12:36:09.611Z,25.40
2018-04-12T12:38:39.198Z,23.50
2018-04-12T12:41:07.488Z,24.07
2018-04-12T12:43:35.942Z,21.70
2018-04-12T12:46:04.514Z,25.53
2018-04-12T12:48:33.582Z,24.80
2018-04-12T12:51:01.873Z,23.90
2018-04-12T12:53:30.198Z,23.73
2018-04-12T12:55:59.266Z,24.30
2018-04-12T12:58:27.477Z,26.03
2018-04-12T13:00:55.732Z,27.30
2018-04-12T13:03:24.015Z,27.43
2018-04-12T13:05:52.368Z,25.53
2018-04-12T13:08:20.691Z,23.40
2018-04-12T13:10:49.339Z,23.03
2018-04-12T13:13:17.600Z,23.43
2018-04-12T13:15:45.873Z,21.63
2018-04-12T13:18:14.235Z,22.20
2018-04-12T13:20:42.468Z,23.67
2018-04-12T13:23:10.890Z,23.93
2018-04-12T13:25:39.267Z,21.77
2018-04-12T13:28:07.597Z,19.07
2018-04-12T13:30:35.889Z,17.73
2018-04-12T13:33:04.980Z,17.60
2018-04-12T13:35:34.129Z,17.27
2018-04-12T13:38:02.406Z,16.97
2018-04-12T13:40:30.664Z,16.50
2018-04-12T13:42:58.954Z,19.93
2018-04-12T13:45:27.237Z,19.23
2018-04-12T13:47:56.067Z,19.00
2018-04-12T13:50:25.110Z,18.23
2018-04-12T13:52:53.392Z,25.30
2018-04-12T13:55:21.656Z,18.60
2018-04-12T13:57:50.005Z,18.77
2018-04-12T14:00:18.478Z,19.53
2018-04-12T14:02:47.875Z,17.93
2018-04-12T14:05:16.147Z,17.37
2018-04-12T14:07:44.395Z,16.73
2018-04-12T14:10:12.686Z,16.83
2018-04-12T14:12:41.140Z,14.33
2018-04-12T14:15:10.349Z,15.23
2018-04-12T14:17:39.926Z,15.13
2018-04-12T14:20:08.951Z,16.87
2018-04-12T14:22:37.205Z,16.10
2018-04-12T14:25:05.472Z,17.30
2018-04-12T14:27:34.535Z,17.00
2018-04-12T14:30:03.719Z,14.77
2018-04-12T14:32:32.081Z,18.60
2018-04-12T14:35:01.182Z,18.13
2018-04-12T14:37:29.910Z,18.77
2018-04-12T14:39:59.225Z,19.70
2018-04-12T14:42:28.826Z,16.97
2018-04-12T14:44:57.109Z,15.17
2018-04-12T14:47:25.908Z,16.67
2018-04-12T14:49:54.975Z,17.07
2018-04-12T14:52:23.990Z,16.60
2018-04-12T14:54:53.382Z,16.73
2018-04-12T14:57:21.925Z,15.97
2018-04-12T14:59:50.186Z,17.97
2018-04-12T15:02:18.431Z,19.20
2018-04-12T15:04:47.471Z,15.57
2018-04-12T15:07:15.865Z,15.73
2018-04-12T15:09:44.129Z,16.37
2018-04-12T15:12:12.698Z,17.23
2018-04-12T15:14:40.974Z,13.73
2018-04-12T15:17:09.992Z,14.70
2018-04-12T15:19:38.252Z,15.10
2018-04-12T15:22:06.541Z,14.53
2018-04-12T15:24:34.965Z,12.23
2018-04-12T15:27:03.247Z,13.97
2018-04-12T15:29:33.071Z,13.83
2018-04-12T15:32:01.422Z,12.17
2018-04-12T15:34:29.911Z,12.07
2018-04-12T15:36:58.173Z,13.23
2018-04-12T15:39:26.473Z,12.30
2018-04-12T15:41:54.724Z,13.30
2018-04-12T15:44:23.008Z,12.00
2018-04-12T15:46:51.499Z,13.20
2018-04-12T15:49:19.804Z,14.20
2018-04-12T15:51:48.886Z,14.87
2018-04-12T15:54:18.005Z,12.40
2018-04-12T15:56:47.066Z,11.80
2018-04-12T15:59:16.714Z,12.73
2018-04-12T16:01:46.459Z,11.00
2018-04-12T16:04:14.776Z,11.63
2018-04-12T16:06:43.222Z,10.93
2018-04-12T16:09:11.510Z,10.63
2018-04-12T16:11:39.840Z,10.77
2018-04-12T16:14:09.066Z,11.43
2018-04-12T16:16:37.699Z,10.93
2018-04-12T16:19:06.032Z,7.97
2018-04-12T16:21:35.183Z,8.10
2018-04-12T16:24:04.741Z,7.97
2018-04-12T16:26:33.016Z,8.40
2018-04-12T16:29:01.312Z,7.50
2018-04-12T16:31:29.988Z,7.60
2018-04-12T16:33:58.311Z,8.80
2018-04-12T16:36:26.736Z,7.03
2018-04-12T16:38:55.038Z,7.73
2018-04-12T16:41:23.338Z,7.10
2018-04-12T16:43:52.031Z,5.90
2018-04-12T16:46:20.293Z,7.90
2018-04-12T16:48:48.593Z,7.73
2018-04-12T16:51:17.439Z,6.83
2018-04-12T16:53:46.065Z,6.80
2018-04-12T16:56:15.267Z,7.40
2018-04-12T16:58:45.380Z,6.70
2018-04-12T17:01:13.762Z,7.23
2018-04-12T17:03:42.299Z,8.10
2018-04-12T17:06:11.413Z,6.40
2018-04-12T17:08:40.185Z,7.00
2018-04-12T17:11:09.024Z,7.30
2018-04-12T17:13:37.317Z,7.07
2018-04-12T17:16:05.631Z,6.03
2018-04-12T17:18:33.921Z,7.87
2018-04-12T17:21:02.247Z,6.73
2018-04-12T17:23:31.349Z,9.97
2018-04-12T17:25:59.639Z,6.73
2018-04-12T17:28:28.712Z,7.40
2018-04-12T17:30:57.157Z,9.07
2018-04-12T17:33:25.878Z,7.37
2018-04-12T17:35:54.199Z,7.83
2018-04-12T17:38:23.735Z,8.30
2018-04-12T17:40:52.012Z,7.70
2018-04-12T17:43:22.963Z,6.30
2018-04-12T17:45:52.180Z,6.00
2018-04-12T17:48:21.344Z,6.63
2018-04-12T17:50:49.657Z,6.90
2018-04-12T17:53:18.868Z,8.10
2018-04-12T17:55:47.124Z,7.37
2018-04-12T17:58:15.418Z,6.50
2018-04-12T18:00:44.568Z,6.00
2018-04-12T18:03:14.393Z,5.83
2018-04-12T18:05:43.193Z,6.50
2018-04-12T18:08:11.963Z,6.33
2018-04-12T18:10:40.412Z,6.40
2018-04-12T18:13:09.509Z,5.83
2018-04-12T18:15:38.567Z,6.20
2018-04-12T18:18:06.829Z,5.97
2018-04-12T18:20:35.192Z,6.60
2018-04-12T18:23:03.500Z,6.80
2018-04-12T18:25:31.779Z,5.43
2018-04-12T18:28:00.073Z,8.03
2018-04-12T18:30:30.488Z,6.10
2018-04-12T18:32:58.910Z,7.40
2018-04-12T18:35:28.080Z,7.67
2018-04-12T18:37:56.362Z,7.17
2018-04-12T18:40:24.653Z,6.70
2018-04-12T18:42:53.723Z,7.77
2018-04-12T18:45:22.125Z,7.77
2018-04-12T18:47:50.406Z,6.73
2018-04-12T18:50:19.899Z,7.10
2018-04-12T18:52:48.920Z,8.73
2018-04-12T18:55:18.018Z,12.20
2018-04-12T18:57:47.023Z,8.90
2018-04-12T19:00:16.383Z,7.80
2018-04-12T19:02:45.605Z,9.27
2018-04-12T19:05:14.884Z,8.10
2018-04-12T19:07:43.780Z,7.47
2018-04-12T19:10:13.482Z,9.60
2018-04-12T19:12:41.873Z,8.87
2018-04-12T19:15:11.721Z,8.13
2018-04-12T19:17:43.561Z,8.40
2018-04-12T19:20:12.121Z,8.40
2018-04-12T19:22:40.684Z,9.00
2018-04-12T19:25:09.033Z,8.40
2018-04-12T19:27:38.773Z,10.17
2018-04-12T19:30:07.205Z,11.93
2018-04-12T19:32:37.412Z,11.47
2018-04-12T19:35:05.700Z,10.47
2018-04-12T19:37:35.066Z,10.60
2018-04-12T19:40:03.595Z,12.90
2018-04-12T19:42:32.639Z,10.40
2018-04-12T19:45:02.131Z,10.40
2018-04-12T19:47:31.060Z,10.50
2018-04-12T19:50:00.573Z,8.93
2018-04-12T19:52:30.248Z,10.90
2018-04-12T19:54:58.581Z,9.70
2018-04-12T19:57:26.881Z,11.20
2018-04-12T19:59:55.327Z,10.73
2018-04-12T20:02:24.373Z,10.80
2018-04-12T20:04:53.405Z,10.47
2018-04-12T20:07:21.743Z,10.73
2018-04-12T20:09:50.146Z,11.83
2018-04-12T20:12:19.782Z,10.47
2018-04-12T20:14:48.875Z,9.70
2018-04-12T20:17:18.041Z,10.53
2018-04-12T20:19:46.874Z,9.80
2018-04-12T20:22:15.320Z,11.03
2018-04-12T20:24:43.594Z,10.67
2018-04-12T20:27:13.642Z,10.50
2018-04-12T20:29:42.524Z,12.43
2018-04-12T20:32:11.343Z,10.20
2018-04-12T20:34:39.821Z,10.57
2018-04-12T20:37:08.233Z,11.37
2018-04-12T20:39:37.000Z,13.20
2018-04-12T20:42:05.291Z,18.43
2018-04-12T20:44:36.974Z,11.17
2018-04-12T20:47:08.925Z,11.20
2018-04-12T20:49:37.356Z,11.37
2018-04-12T20:52:05.604Z,11.17
2018-04-12T20:54:33.862Z,11.90
2018-04-12T20:57:02.113Z,11.33
2018-04-12T20:59:31.268Z,11.00
2018-04-12T21:01:59.528Z,11.03
2018-04-12T21:04:27.790Z,9.93
2018-04-12T21:06:56.069Z,11.50
2018-04-12T21:09:24.390Z,10.50
2018-04-12T21:11:52.673Z,11.90
2018-04-12T21:14:21.014Z,11.30
2018-04-12T21:16:49.997Z,12.80
2018-04-12T21:19:18.281Z,11.83
2018-04-12T21:21:46.565Z,12.53
2018-04-12T21:24:14.827Z,11.90
2018-04-12T21:26:43.381Z,12.97
2018-04-12T21:29:11.669Z,11.60
2018-04-12T21:31:40.744Z,13.37
2018-04-12T21:34:09.003Z,11.67
2018-04-12T21:36:37.286Z,12.00
2018-04-12T21:39:05.549Z,14.07
2018-04-12T21:41:33.825Z,12.90
2018-04-12T21:44:02.101Z,10.77
2018-04-12T21:46:30.399Z,13.20
2018-04-12T21:48:58.656Z,13.03
2018-04-12T21:51:26.924Z,12.07
2018-04-12T21:53:55.196Z,13.07
2018-04-12T21:56:23.657Z,12.47
2018-04-12T21:58:51.941Z,13.20
2018-04-12T22:01:20.953Z,11.47
2018-04-12T22:03:49.245Z,12.13
2018-04-12T22:06:17.507Z,12.83
2018-04-12T22:08:46.801Z,12.47
2018-04-12T22:11:15.063Z,12.20
2018-04-12T22:13:43.348Z,12.90
2018-04-12T22:16:11.618Z,13.83
2018-04-12T22:18:40.264Z,12.47
2018-04-12T22:21:08.848Z,13.23
2018-04-12T22:23:37.114Z,13.20
2018-04-12T22:26:05.364Z,12.70
2018-04-12T22:28:33.660Z,13.00
2018-04-12T22:31:02.904Z,11.40
2018-04-12T22:33:31.162Z,11.57
2018-04-12T22:36:00.235Z,12.07
2018-04-12T22:38:28.492Z,11.70
2018-04-12T22:40:56.757Z,11.43
2018-04-12T22:43:25.513Z,11.47
2018-04-12T22:45:53.765Z,12.60
2018-04-12T22:48:22.068Z,11.33
2018-04-12T22:50:50.306Z,12.20
2018-04-12T22:53:18.617Z,11.93
2018-04-12T22:55:47.663Z,11.77
2018-04-12T22:58:15.948Z,12.43
2018-04-12T23:00:44.228Z,12.10
2018-04-12T23:03:14.908Z,10.57
2018-04-12T23:05:43.994Z,12.63
2018-04-12T23:08:12.262Z,12.00
2018-04-12T23:10:41.435Z,12.03
2018-04-12T23:13:09.755Z,11.70
2018-04-12T23:15:38.802Z,11.17
2018-04-12T23:18:07.091Z,12.37
2018-04-12T23:20:35.388Z,12.07
2018-04-12T23:23:03.641Z,10.90
2018-04-12T23:25:31.946Z,11.63
2018-04-12T23:28:00.201Z,13.30
2018-04-12T23:30:29.398Z,13.97
2018-04-12T23:32:57.648Z,13.00
2018-04-12T23:35:25.969Z,13.60
2018-04-12T23:37:55.206Z,13.67
2018-04-12T23:40:23.476Z,14.77
2018-04-12T23:42:52.492Z,14.60
2018-04-12T23:45:20.746Z,15.47
2018-04-12T23:47:49.801Z,14.40
2018-04-12T23:50:18.172Z,15.07
2018-04-12T23:52:46.403Z,15.00
2018-04-12T23:55:14.718Z,14.77
2018-04-12T23:57:43.034Z,14.17
